sensor_id;sensor_type;location;lat;lon;timestamp;temperature;humidity
41904;DHT22;27586;51.124;4.182;2024-01-07T00:00:03;3.90;99.90
41904;DHT22;27586;51.124;4.182;2024-01-07T00:02:29;3.90;99.90
41904;DHT22;27586;51.124;4.182;2024-01-07T00:04:56;3.90;99.90
41904;DHT22;27586;51.124;4.182;2024-01-07T00:07:22;3.90;99.90
41904;DHT22;27586;51.124;4.182;2024-01-07T00:09:47;3.90;99.90
41904;DHT22;27586;51.124;4.182;2024-01-07T00:12:13;3.90;99.90
41904;DHT22;27586;51.124;4.182;2024-01-07T00:14:39;3.90;99.90
41904;DHT22;27586;51.124;4.182;2024-01-07T00:17:04;3.90;99.90
41904;DHT22;27586;51.124;4.182;2024-01-07T00:19:30;4.00;99.90
41904;DHT22;27586;51.124;4.182;2024-01-07T00:22:01;4.00;99.90
41904;DHT22;27586;51.124;4.182;2024-01-07T00:24:26;4.00;99.90
41904;DHT22;27586;51.124;4.182;2024-01-07T00:26:54;3.90;99.90
41904;DHT22;27586;51.124;4.182;2024-01-07T00:29:20;3.80;99.90
41904;DHT22;27586;51.124;4.182;2024-01-07T00:31:46;3.90;99.90
41904;DHT22;27586;51.124;4.182;2024-01-07T00:34:11;3.80;99.90
41904;DHT22;27586;51.124;4.182;2024-01-07T00:36:37;3.80;99.90
41904;DHT22;27586;51.124;4.182;2024-01-07T00:39:03;3.80;99.90
41904;DHT22;27586;51.124;4.182;2024-01-07T00:41:28;3.70;99.90
41904;DHT22;27586;51.124;4.182;2024-01-07T00:43:55;3.70;99.90
41904;DHT22;27586;51.124;4.182;2024-01-07T00:46:21;3.80;99.90
41904;DHT22;27586;51.124;4.182;2024-01-07T00:48:47;3.70;99.90
41904;DHT22;27586;51.124;4.182;2024-01-07T00:51:13;3.70;99.90
41904;DHT22;27586;51.124;4.182;2024-01-07T00:53:39;3.70;99.90
41904;DHT22;27586;51.124;4.182;2024-01-07T00:56:05;3.70;99.90
41904;DHT22;27586;51.124;4.182;2024-01-07T00:58:31;3.80;99.90
41904;DHT22;27586;51.124;4.182;2024-01-07T01:00:57;3.70;99.90
41904;DHT22;27586;51.124;4.182;2024-01-07T01:03:23;3.80;99.90
41904;DHT22;27586;51.124;4.182;2024-01-07T01:05:48;3.80;99.90
41904;DHT22;27586;51.124;4.182;2024-01-07T01:08:14;3.70;99.90
41904;DHT22;27586;51.124;4.182;2024-01-07T01:10:39;3.80;99.90
41904;DHT22;27586;51.124;4.182;2024-01-07T01:13:05;3.80;99.90
41904;DHT22;27586;51.124;4.182;2024-01-07T01:15:31;3.80;99.90
41904;DHT22;27586;51.124;4.182;2024-01-07T01:17:56;3.80;99.90
41904;DHT22;27586;51.124;4.182;2024-01-07T01:20:22;3.80;99.90
41904;DHT22;27586;51.124;4.182;2024-01-07T01:22:48;3.70;99.90
41904;DHT22;27586;51.124;4.182;2024-01-07T01:25:13;3.80;99.90
41904;DHT22;27586;51.124;4.182;2024-01-07T01:27:39;3.80;99.90
41904;DHT22;27586;51.124;4.182;2024-01-07T01:30:05;3.70;99.90
41904;DHT22;27586;51.124;4.182;2024-01-07T01:32:31;3.80;99.90
41904;DHT22;27586;51.124;4.182;2024-01-07T01:34:57;3.90;99.90
41904;DHT22;27586;51.124;4.182;2024-01-07T01:37:22;3.90;99.90
41904;DHT22;27586;51.124;4.182;2024-01-07T01:39:48;3.70;99.90
41904;DHT22;27586;51.124;4.182;2024-01-07T01:42:14;3.90;99.90
41904;DHT22;27586;51.124;4.182;2024-01-07T01:44:39;3.80;99.90
41904;DHT22;27586;51.124;4.182;2024-01-07T01:47:06;3.60;99.90
41904;DHT22;27586;51.124;4.182;2024-01-07T01:49:32;3.60;99.90
41904;DHT22;27586;51.124;4.182;2024-01-07T01:51:58;3.60;99.90
41904;DHT22;27586;51.124;4.182;2024-01-07T01:54:24;3.50;99.90
41904;DHT22;27586;51.124;4.182;2024-01-07T01:56:50;3.60;99.90
41904;DHT22;27586;51.124;4.182;2024-01-07T01:59:16;3.70;99.90
41904;DHT22;27586;51.124;4.182;2024-01-07T02:01:42;3.60;99.90
41904;DHT22;27586;51.124;4.182;2024-01-07T02:04:08;3.60;99.90
41904;DHT22;27586;51.124;4.182;2024-01-07T02:06:34;3.70;99.90
41904;DHT22;27586;51.124;4.182;2024-01-07T02:09:00;3.70;99.90
41904;DHT22;27586;51.124;4.182;2024-01-07T02:11:25;3.60;99.90
41904;DHT22;27586;51.124;4.182;2024-01-07T02:13:51;3.50;99.90
41904;DHT22;27586;51.124;4.182;2024-01-07T02:16:17;3.40;99.90
41904;DHT22;27586;51.124;4.182;2024-01-07T02:18:44;3.40;99.90
41904;DHT22;27586;51.124;4.182;2024-01-07T02:21:11;3.40;99.90
41904;DHT22;27586;51.124;4.182;2024-01-07T02:23:38;3.30;99.90
41904;DHT22;27586;51.124;4.182;2024-01-07T02:26:03;3.50;99.90
41904;DHT22;27586;51.124;4.182;2024-01-07T02:28:30;3.40;99.90
41904;DHT22;27586;51.124;4.182;2024-01-07T02:30:55;3.10;99.90
41904;DHT22;27586;51.124;4.182;2024-01-07T02:33:21;3.30;99.90
41904;DHT22;27586;51.124;4.182;2024-01-07T02:35:47;3.10;99.90
41904;DHT22;27586;51.124;4.182;2024-01-07T02:38:12;3.10;99.90
41904;DHT22;27586;51.124;4.182;2024-01-07T02:40:38;3.10;99.90
41904;DHT22;27586;51.124;4.182;2024-01-07T02:43:04;3.10;99.90
41904;DHT22;27586;51.124;4.182;2024-01-07T02:45:30;3.10;99.90
41904;DHT22;27586;51.124;4.182;2024-01-07T02:47:55;3.10;99.90
41904;DHT22;27586;51.124;4.182;2024-01-07T02:50:21;3.10;99.90
41904;DHT22;27586;51.124;4.182;2024-01-07T02:52:47;3.30;99.90
41904;DHT22;27586;51.124;4.182;2024-01-07T02:55:13;3.40;99.90
41904;DHT22;27586;51.124;4.182;2024-01-07T02:57:39;3.30;99.90
41904;DHT22;27586;51.124;4.182;2024-01-07T03:00:05;3.20;99.90
41904;DHT22;27586;51.124;4.182;2024-01-07T03:02:31;3.30;99.90
41904;DHT22;27586;51.124;4.182;2024-01-07T03:04:57;3.20;99.90
41904;DHT22;27586;51.124;4.182;2024-01-07T03:07:23;3.20;99.90
41904;DHT22;27586;51.124;4.182;2024-01-07T03:09:49;3.10;99.90
41904;DHT22;27586;51.124;4.182;2024-01-07T03:12:17;3.10;99.90
41904;DHT22;27586;51.124;4.182;2024-01-07T03:14:43;3.10;99.90
41904;DHT22;27586;51.124;4.182;2024-01-07T03:17:12;3.10;99.90
41904;DHT22;27586;51.124;4.182;2024-01-07T03:19:40;3.10;99.90
41904;DHT22;27586;51.124;4.182;2024-01-07T03:22:07;3.20;99.90
41904;DHT22;27586;51.124;4.182;2024-01-07T03:24:33;3.20;99.90
41904;DHT22;27586;51.124;4.182;2024-01-07T03:26:59;3.20;99.90
41904;DHT22;27586;51.124;4.182;2024-01-07T03:29:24;3.20;99.90
41904;DHT22;27586;51.124;4.182;2024-01-07T03:31:50;3.10;99.90
41904;DHT22;27586;51.124;4.182;2024-01-07T03:34:16;3.00;99.90
41904;DHT22;27586;51.124;4.182;2024-01-07T03:36:42;3.00;99.90
41904;DHT22;27586;51.124;4.182;2024-01-07T03:39:08;3.00;99.90
41904;DHT22;27586;51.124;4.182;2024-01-07T03:41:34;3.00;99.90
41904;DHT22;27586;51.124;4.182;2024-01-07T03:43:59;3.10;99.90
41904;DHT22;27586;51.124;4.182;2024-01-07T03:46:25;2.90;99.90
41904;DHT22;27586;51.124;4.182;2024-01-07T03:48:50;3.00;99.90
41904;DHT22;27586;51.124;4.182;2024-01-07T03:51:16;2.90;99.90
41904;DHT22;27586;51.124;4.182;2024-01-07T03:53:42;2.90;99.90
41904;DHT22;27586;51.124;4.182;2024-01-07T03:56:07;3.00;99.90
41904;DHT22;27586;51.124;4.182;2024-01-07T03:58:33;2.90;99.90
41904;DHT22;27586;51.124;4.182;2024-01-07T04:01:00;3.00;99.90
41904;DHT22;27586;51.124;4.182;2024-01-07T04:03:26;3.10;99.90
41904;DHT22;27586;51.124;4.182;2024-01-07T04:05:52;2.90;99.90
41904;DHT22;27586;51.124;4.182;2024-01-07T04:08:17;3.00;99.90
41904;DHT22;27586;51.124;4.182;2024-01-07T04:10:43;2.90;99.90
41904;DHT22;27586;51.124;4.182;2024-01-07T04:13:09;3.00;99.90
41904;DHT22;27586;51.124;4.182;2024-01-07T04:15:35;2.90;99.90
41904;DHT22;27586;51.124;4.182;2024-01-07T04:18:01;2.90;99.90
41904;DHT22;27586;51.124;4.182;2024-01-07T04:20:28;2.90;99.90
41904;DHT22;27586;51.124;4.182;2024-01-07T04:22:54;2.80;99.90
41904;DHT22;27586;51.124;4.182;2024-01-07T04:25:19;2.90;99.90
41904;DHT22;27586;51.124;4.182;2024-01-07T04:27:45;3.00;99.90
41904;DHT22;27586;51.124;4.182;2024-01-07T04:30:11;3.00;99.90
41904;DHT22;27586;51.124;4.182;2024-01-07T04:32:36;3.00;99.90
41904;DHT22;27586;51.124;4.182;2024-01-07T04:35:02;3.10;99.90
41904;DHT22;27586;51.124;4.182;2024-01-07T04:37:28;3.00;99.90
41904;DHT22;27586;51.124;4.182;2024-01-07T04:39:54;3.00;99.90
41904;DHT22;27586;51.124;4.182;2024-01-07T04:42:19;3.10;99.90
41904;DHT22;27586;51.124;4.182;2024-01-07T04:44:45;3.00;99.90
41904;DHT22;27586;51.124;4.182;2024-01-07T04:47:30;3.00;99.90
41904;DHT22;27586;51.124;4.182;2024-01-07T04:49:57;3.10;99.90
41904;DHT22;27586;51.124;4.182;2024-01-07T04:52:23;3.00;99.90
41904;DHT22;27586;51.124;4.182;2024-01-07T04:54:53;2.90;99.90
41904;DHT22;27586;51.124;4.182;2024-01-07T04:57:19;2.80;99.90
41904;DHT22;27586;51.124;4.182;2024-01-07T04:59:45;2.90;99.90
41904;DHT22;27586;51.124;4.182;2024-01-07T05:02:12;2.80;99.90
41904;DHT22;27586;51.124;4.182;2024-01-07T05:04:37;2.80;99.90
41904;DHT22;27586;51.124;4.182;2024-01-07T05:07:03;2.70;99.90
41904;DHT22;27586;51.124;4.182;2024-01-07T05:09:29;2.70;99.90
41904;DHT22;27586;51.124;4.182;2024-01-07T05:11:55;2.80;99.90
41904;DHT22;27586;51.124;4.182;2024-01-07T05:14:20;2.70;99.90
41904;DHT22;27586;51.124;4.182;2024-01-07T05:16:48;2.60;99.90
41904;DHT22;27586;51.124;4.182;2024-01-07T05:19:14;2.60;99.90
41904;DHT22;27586;51.124;4.182;2024-01-07T05:21:39;2.70;99.90
41904;DHT22;27586;51.124;4.182;2024-01-07T05:24:05;2.70;99.90
41904;DHT22;27586;51.124;4.182;2024-01-07T05:26:38;2.70;99.90
41904;DHT22;27586;51.124;4.182;2024-01-07T05:29:04;2.70;99.90
41904;DHT22;27586;51.124;4.182;2024-01-07T05:31:29;2.70;99.90
41904;DHT22;27586;51.124;4.182;2024-01-07T05:33:55;2.70;99.90
41904;DHT22;27586;51.124;4.182;2024-01-07T05:36:20;2.90;99.90
41904;DHT22;27586;51.124;4.182;2024-01-07T05:38:47;2.80;99.90
41904;DHT22;27586;51.124;4.182;2024-01-07T05:41:12;2.60;99.90
41904;DHT22;27586;51.124;4.182;2024-01-07T05:43:38;2.50;99.90
41904;DHT22;27586;51.124;4.182;2024-01-07T05:46:04;2.50;99.90
41904;DHT22;27586;51.124;4.182;2024-01-07T05:48:29;2.60;99.90
41904;DHT22;27586;51.124;4.182;2024-01-07T05:50:55;2.40;99.90
41904;DHT22;27586;51.124;4.182;2024-01-07T05:53:20;2.40;99.90
41904;DHT22;27586;51.124;4.182;2024-01-07T05:55:46;2.50;99.90
41904;DHT22;27586;51.124;4.182;2024-01-07T05:58:12;2.50;99.90
41904;DHT22;27586;51.124;4.182;2024-01-07T06:00:38;2.50;99.90
41904;DHT22;27586;51.124;4.182;2024-01-07T06:03:04;2.50;99.90
41904;DHT22;27586;51.124;4.182;2024-01-07T06:05:29;2.50;99.90
41904;DHT22;27586;51.124;4.182;2024-01-07T06:07:55;2.50;99.90
41904;DHT22;27586;51.124;4.182;2024-01-07T06:10:21;2.60;99.90
41904;DHT22;27586;51.124;4.182;2024-01-07T06:12:46;2.60;99.90
41904;DHT22;27586;51.124;4.182;2024-01-07T06:15:12;2.60;99.90
41904;DHT22;27586;51.124;4.182;2024-01-07T06:17:38;2.70;99.90
41904;DHT22;27586;51.124;4.182;2024-01-07T06:20:04;2.60;99.90
41904;DHT22;27586;51.124;4.182;2024-01-07T06:22:31;2.60;99.90
41904;DHT22;27586;51.124;4.182;2024-01-07T06:24:56;2.60;99.90
41904;DHT22;27586;51.124;4.182;2024-01-07T06:27:22;2.60;99.90
41904;DHT22;27586;51.124;4.182;2024-01-07T06:29:48;2.60;99.90
41904;DHT22;27586;51.124;4.182;2024-01-07T06:32:14;2.60;99.90
41904;DHT22;27586;51.124;4.182;2024-01-07T06:34:39;2.60;99.90
41904;DHT22;27586;51.124;4.182;2024-01-07T06:37:05;2.60;99.90
41904;DHT22;27586;51.124;4.182;2024-01-07T06:39:33;2.50;99.90
41904;DHT22;27586;51.124;4.182;2024-01-07T06:41:59;2.70;99.90
41904;DHT22;27586;51.124;4.182;2024-01-07T06:44:25;2.60;99.90
41904;DHT22;27586;51.124;4.182;2024-01-07T06:46:51;2.60;99.90
41904;DHT22;27586;51.124;4.182;2024-01-07T06:49:16;2.60;99.90
41904;DHT22;27586;51.124;4.182;2024-01-07T06:51:42;2.60;99.90
41904;DHT22;27586;51.124;4.182;2024-01-07T06:54:07;2.70;99.90
41904;DHT22;27586;51.124;4.182;2024-01-07T06:56:33;2.60;99.90
41904;DHT22;27586;51.124;4.182;2024-01-07T06:58:59;2.60;99.90
41904;DHT22;27586;51.124;4.182;2024-01-07T07:01:25;2.50;99.90
41904;DHT22;27586;51.124;4.182;2024-01-07T07:03:51;2.50;99.90
41904;DHT22;27586;51.124;4.182;2024-01-07T07:06:16;2.40;99.90
41904;DHT22;27586;51.124;4.182;2024-01-07T07:08:42;2.40;99.90
41904;DHT22;27586;51.124;4.182;2024-01-07T07:11:08;2.60;99.90
41904;DHT22;27586;51.124;4.182;2024-01-07T07:13:34;2.70;99.90
41904;DHT22;27586;51.124;4.182;2024-01-07T07:16:00;2.70;99.90
41904;DHT22;27586;51.124;4.182;2024-01-07T07:18:25;2.80;99.90
41904;DHT22;27586;51.124;4.182;2024-01-07T07:20:51;2.70;99.90
41904;DHT22;27586;51.124;4.182;2024-01-07T07:23:17;2.70;99.90
41904;DHT22;27586;51.124;4.182;2024-01-07T07:25:43;2.70;99.90
41904;DHT22;27586;51.124;4.182;2024-01-07T07:28:09;2.70;99.90
41904;DHT22;27586;51.124;4.182;2024-01-07T07:30:35;2.60;99.90
41904;DHT22;27586;51.124;4.182;2024-01-07T07:33:01;2.60;99.90
41904;DHT22;27586;51.124;4.182;2024-01-07T07:35:27;2.70;99.90
41904;DHT22;27586;51.124;4.182;2024-01-07T07:37:54;2.80;99.90
41904;DHT22;27586;51.124;4.182;2024-01-07T07:40:19;2.70;99.90
41904;DHT22;27586;51.124;4.182;2024-01-07T07:42:45;2.70;99.90
41904;DHT22;27586;51.124;4.182;2024-01-07T07:45:10;2.60;99.90
41904;DHT22;27586;51.124;4.182;2024-01-07T07:47:36;2.70;99.90
41904;DHT22;27586;51.124;4.182;2024-01-07T07:50:02;2.60;99.90
41904;DHT22;27586;51.124;4.182;2024-01-07T07:52:28;2.50;99.90
41904;DHT22;27586;51.124;4.182;2024-01-07T07:54:54;2.50;99.90
41904;DHT22;27586;51.124;4.182;2024-01-07T07:57:21;2.70;99.90
41904;DHT22;27586;51.124;4.182;2024-01-07T07:59:48;2.60;99.90
41904;DHT22;27586;51.124;4.182;2024-01-07T08:02:13;2.70;99.90
41904;DHT22;27586;51.124;4.182;2024-01-07T08:04:39;2.70;99.90
41904;DHT22;27586;51.124;4.182;2024-01-07T08:07:08;2.50;99.90
41904;DHT22;27586;51.124;4.182;2024-01-07T08:09:33;2.60;99.90
41904;DHT22;27586;51.124;4.182;2024-01-07T08:12:02;2.60;99.90
41904;DHT22;27586;51.124;4.182;2024-01-07T08:14:28;2.60;99.90
41904;DHT22;27586;51.124;4.182;2024-01-07T08:16:54;2.50;99.90
41904;DHT22;27586;51.124;4.182;2024-01-07T08:19:20;2.60;99.90
41904;DHT22;27586;51.124;4.182;2024-01-07T08:21:46;2.50;99.90
41904;DHT22;27586;51.124;4.182;2024-01-07T08:24:11;2.50;99.90
41904;DHT22;27586;51.124;4.182;2024-01-07T08:26:37;2.50;99.90
41904;DHT22;27586;51.124;4.182;2024-01-07T08:29:03;2.50;99.90
41904;DHT22;27586;51.124;4.182;2024-01-07T08:31:30;2.60;99.90
41904;DHT22;27586;51.124;4.182;2024-01-07T08:33:56;2.60;99.90
41904;DHT22;27586;51.124;4.182;2024-01-07T08:36:21;2.50;99.90
41904;DHT22;27586;51.124;4.182;2024-01-07T08:38:47;2.50;99.90
41904;DHT22;27586;51.124;4.182;2024-01-07T08:41:15;2.60;99.90
41904;DHT22;27586;51.124;4.182;2024-01-07T08:43:41;2.60;99.90
41904;DHT22;27586;51.124;4.182;2024-01-07T08:46:07;2.50;99.90
41904;DHT22;27586;51.124;4.182;2024-01-07T08:48:33;2.40;99.90
41904;DHT22;27586;51.124;4.182;2024-01-07T08:50:58;2.60;99.90
41904;DHT22;27586;51.124;4.182;2024-01-07T08:53:24;2.60;99.90
41904;DHT22;27586;51.124;4.182;2024-01-07T08:55:50;2.50;99.90
41904;DHT22;27586;51.124;4.182;2024-01-07T08:58:15;2.50;99.90
41904;DHT22;27586;51.124;4.182;2024-01-07T09:00:42;2.50;99.90
41904;DHT22;27586;51.124;4.182;2024-01-07T09:03:09;2.60;99.90
41904;DHT22;27586;51.124;4.182;2024-01-07T09:05:34;2.50;99.90
41904;DHT22;27586;51.124;4.182;2024-01-07T09:08:00;2.50;99.90
41904;DHT22;27586;51.124;4.182;2024-01-07T09:10:26;2.60;99.90
41904;DHT22;27586;51.124;4.182;2024-01-07T09:12:52;2.60;99.90
41904;DHT22;27586;51.124;4.182;2024-01-07T09:15:19;2.60;99.90
41904;DHT22;27586;51.124;4.182;2024-01-07T09:17:46;2.60;99.90
41904;DHT22;27586;51.124;4.182;2024-01-07T09:20:12;2.60;99.90
41904;DHT22;27586;51.124;4.182;2024-01-07T09:22:38;2.60;99.90
41904;DHT22;27586;51.124;4.182;2024-01-07T09:25:06;2.60;99.90
41904;DHT22;27586;51.124;4.182;2024-01-07T09:27:32;2.50;99.90
41904;DHT22;27586;51.124;4.182;2024-01-07T09:29:58;2.60;99.90
41904;DHT22;27586;51.124;4.182;2024-01-07T09:32:24;2.60;99.90
41904;DHT22;27586;51.124;4.182;2024-01-07T09:34:50;2.80;99.90
41904;DHT22;27586;51.124;4.182;2024-01-07T09:37:16;2.60;99.90
41904;DHT22;27586;51.124;4.182;2024-01-07T09:39:43;2.40;99.90
41904;DHT22;27586;51.124;4.182;2024-01-07T09:42:16;2.30;99.90
41904;DHT22;27586;51.124;4.182;2024-01-07T09:44:43;2.30;99.90
41904;DHT22;27586;51.124;4.182;2024-01-07T09:47:13;2.30;99.90
41904;DHT22;27586;51.124;4.182;2024-01-07T09:49:42;2.30;99.90
41904;DHT22;27586;51.124;4.182;2024-01-07T09:52:10;2.30;99.90
41904;DHT22;27586;51.124;4.182;2024-01-07T09:54:37;2.40;99.90
41904;DHT22;27586;51.124;4.182;2024-01-07T09:57:07;2.30;99.90
41904;DHT22;27586;51.124;4.182;2024-01-07T09:59:34;2.30;99.90
41904;DHT22;27586;51.124;4.182;2024-01-07T10:02:00;2.30;99.90
41904;DHT22;27586;51.124;4.182;2024-01-07T10:04:29;2.30;99.90
41904;DHT22;27586;51.124;4.182;2024-01-07T10:06:56;2.30;99.90
41904;DHT22;27586;51.124;4.182;2024-01-07T10:09:23;2.30;99.90
41904;DHT22;27586;51.124;4.182;2024-01-07T10:11:49;2.30;99.90
41904;DHT22;27586;51.124;4.182;2024-01-07T10:14:15;2.30;99.90
41904;DHT22;27586;51.124;4.182;2024-01-07T10:16:41;2.30;99.90
41904;DHT22;27586;51.124;4.182;2024-01-07T10:19:07;2.20;99.90
41904;DHT22;27586;51.124;4.182;2024-01-07T10:21:34;2.10;99.90
41904;DHT22;27586;51.124;4.182;2024-01-07T10:24:12;2.20;99.90
41904;DHT22;27586;51.124;4.182;2024-01-07T10:26:39;2.20;99.90
41904;DHT22;27586;51.124;4.182;2024-01-07T10:29:06;2.30;99.90
41904;DHT22;27586;51.124;4.182;2024-01-07T10:31:32;2.30;99.90
41904;DHT22;27586;51.124;4.182;2024-01-07T10:33:58;2.40;99.90
41904;DHT22;27586;51.124;4.182;2024-01-07T10:36:24;2.30;99.90
41904;DHT22;27586;51.124;4.182;2024-01-07T10:38:50;2.30;99.90
41904;DHT22;27586;51.124;4.182;2024-01-07T10:41:18;2.30;99.90
41904;DHT22;27586;51.124;4.182;2024-01-07T10:43:46;2.20;99.90
41904;DHT22;27586;51.124;4.182;2024-01-07T10:46:14;2.30;99.90
41904;DHT22;27586;51.124;4.182;2024-01-07T10:49:00;2.40;99.90
41904;DHT22;27586;51.124;4.182;2024-01-07T10:51:28;2.30;99.90
41904;DHT22;27586;51.124;4.182;2024-01-07T10:53:55;2.30;99.90
41904;DHT22;27586;51.124;4.182;2024-01-07T10:56:25;2.30;99.90
41904;DHT22;27586;51.124;4.182;2024-01-07T10:58:55;2.20;99.90
41904;DHT22;27586;51.124;4.182;2024-01-07T11:01:22;2.20;99.90
41904;DHT22;27586;51.124;4.182;2024-01-07T11:04:08;2.20;99.90
41904;DHT22;27586;51.124;4.182;2024-01-07T11:10:18;2.20;99.90
41904;DHT22;27586;51.124;4.182;2024-01-07T11:12:53;2.10;99.90
41904;DHT22;27586;51.124;4.182;2024-01-07T11:18:22;2.20;99.90
41904;DHT22;27586;51.124;4.182;2024-01-07T11:20:51;2.20;99.90
41904;DHT22;27586;51.124;4.182;2024-01-07T11:25:57;2.30;99.90
41904;DHT22;27586;51.124;4.182;2024-01-07T11:31:15;2.20;99.90
41904;DHT22;27586;51.124;4.182;2024-01-07T11:33:43;2.30;99.90
41904;DHT22;27586;51.124;4.182;2024-01-07T11:36:11;2.10;99.90
41904;DHT22;27586;51.124;4.182;2024-01-07T11:38:40;2.20;99.90
41904;DHT22;27586;51.124;4.182;2024-01-07T11:41:07;2.20;99.90
41904;DHT22;27586;51.124;4.182;2024-01-07T11:43:34;2.10;99.90
41904;DHT22;27586;51.124;4.182;2024-01-07T11:46:00;2.20;99.90
41904;DHT22;27586;51.124;4.182;2024-01-07T11:48:26;2.30;99.90
41904;DHT22;27586;51.124;4.182;2024-01-07T11:50:52;2.40;99.90
41904;DHT22;27586;51.124;4.182;2024-01-07T11:53:18;2.40;99.90
41904;DHT22;27586;51.124;4.182;2024-01-07T11:55:45;2.40;99.90
41904;DHT22;27586;51.124;4.182;2024-01-07T11:58:10;2.40;99.90
41904;DHT22;27586;51.124;4.182;2024-01-07T12:00:36;2.30;99.90
41904;DHT22;27586;51.124;4.182;2024-01-07T12:03:02;2.30;99.90
41904;DHT22;27586;51.124;4.182;2024-01-07T12:05:29;2.40;99.90
41904;DHT22;27586;51.124;4.182;2024-01-07T12:07:55;2.40;99.90
41904;DHT22;27586;51.124;4.182;2024-01-07T12:10:23;2.50;99.90
41904;DHT22;27586;51.124;4.182;2024-01-07T12:12:49;2.40;99.90
41904;DHT22;27586;51.124;4.182;2024-01-07T12:15:16;2.40;99.90
41904;DHT22;27586;51.124;4.182;2024-01-07T12:17:42;2.40;99.90
41904;DHT22;27586;51.124;4.182;2024-01-07T12:20:08;2.50;99.90
41904;DHT22;27586;51.124;4.182;2024-01-07T12:22:38;2.50;99.90
41904;DHT22;27586;51.124;4.182;2024-01-07T12:25:05;2.70;99.90
41904;DHT22;27586;51.124;4.182;2024-01-07T12:27:31;2.60;99.90
41904;DHT22;27586;51.124;4.182;2024-01-07T12:29:58;2.60;99.90
41904;DHT22;27586;51.124;4.182;2024-01-07T12:32:30;2.50;99.90
41904;DHT22;27586;51.124;4.182;2024-01-07T12:34:59;2.40;99.90
41904;DHT22;27586;51.124;4.182;2024-01-07T12:37:28;2.40;99.90
41904;DHT22;27586;51.124;4.182;2024-01-07T12:39:54;2.50;99.90
41904;DHT22;27586;51.124;4.182;2024-01-07T12:42:20;2.40;99.90
41904;DHT22;27586;51.124;4.182;2024-01-07T12:44:48;2.30;99.90
41904;DHT22;27586;51.124;4.182;2024-01-07T12:47:17;2.30;99.90
41904;DHT22;27586;51.124;4.182;2024-01-07T12:49:42;2.40;99.90
41904;DHT22;27586;51.124;4.182;2024-01-07T12:52:08;2.30;99.90
41904;DHT22;27586;51.124;4.182;2024-01-07T12:54:35;2.30;99.90
41904;DHT22;27586;51.124;4.182;2024-01-07T12:57:01;2.30;99.90
41904;DHT22;27586;51.124;4.182;2024-01-07T12:59:26;2.20;99.90
41904;DHT22;27586;51.124;4.182;2024-01-07T13:01:52;2.20;99.90
41904;DHT22;27586;51.124;4.182;2024-01-07T13:04:19;2.30;99.90
41904;DHT22;27586;51.124;4.182;2024-01-07T13:06:45;2.40;99.90
41904;DHT22;27586;51.124;4.182;2024-01-07T13:09:11;2.40;99.90
41904;DHT22;27586;51.124;4.182;2024-01-07T13:11:37;2.40;99.90
41904;DHT22;27586;51.124;4.182;2024-01-07T13:14:03;2.30;99.90
41904;DHT22;27586;51.124;4.182;2024-01-07T13:16:28;2.40;99.90
41904;DHT22;27586;51.124;4.182;2024-01-07T13:18:55;2.40;99.90
41904;DHT22;27586;51.124;4.182;2024-01-07T13:21:21;2.30;99.90
41904;DHT22;27586;51.124;4.182;2024-01-07T13:23:47;2.30;99.90
41904;DHT22;27586;51.124;4.182;2024-01-07T13:26:16;2.30;99.90
41904;DHT22;27586;51.124;4.182;2024-01-07T13:28:42;2.20;99.90
41904;DHT22;27586;51.124;4.182;2024-01-07T13:31:11;2.10;99.90
41904;DHT22;27586;51.124;4.182;2024-01-07T13:33:40;2.00;99.90
41904;DHT22;27586;51.124;4.182;2024-01-07T13:36:06;2.10;99.90
41904;DHT22;27586;51.124;4.182;2024-01-07T13:38:35;1.90;99.90
41904;DHT22;27586;51.124;4.182;2024-01-07T13:41:04;1.90;99.90
41904;DHT22;27586;51.124;4.182;2024-01-07T13:43:29;1.90;99.90
41904;DHT22;27586;51.124;4.182;2024-01-07T13:45:56;2.00;99.90
41904;DHT22;27586;51.124;4.182;2024-01-07T13:48:21;2.10;99.90
41904;DHT22;27586;51.124;4.182;2024-01-07T13:50:47;2.10;99.90
41904;DHT22;27586;51.124;4.182;2024-01-07T13:53:15;2.10;99.90
41904;DHT22;27586;51.124;4.182;2024-01-07T13:55:40;2.00;99.90
41904;DHT22;27586;51.124;4.182;2024-01-07T13:58:06;2.00;99.90
41904;DHT22;27586;51.124;4.182;2024-01-07T14:00:32;2.00;99.90
41904;DHT22;27586;51.124;4.182;2024-01-07T14:02:57;2.00;99.90
41904;DHT22;27586;51.124;4.182;2024-01-07T14:05:23;1.90;99.90
41904;DHT22;27586;51.124;4.182;2024-01-07T14:07:49;2.10;99.90
41904;DHT22;27586;51.124;4.182;2024-01-07T14:10:14;2.10;99.90
41904;DHT22;27586;51.124;4.182;2024-01-07T14:12:40;2.20;99.90
41904;DHT22;27586;51.124;4.182;2024-01-07T14:15:06;2.30;99.90
41904;DHT22;27586;51.124;4.182;2024-01-07T14:17:34;2.10;99.90
41904;DHT22;27586;51.124;4.182;2024-01-07T14:20:00;2.10;99.90
41904;DHT22;27586;51.124;4.182;2024-01-07T14:22:25;1.90;99.90
41904;DHT22;27586;51.124;4.182;2024-01-07T14:24:51;1.90;99.90
41904;DHT22;27586;51.124;4.182;2024-01-07T14:27:17;1.90;99.90
41904;DHT22;27586;51.124;4.182;2024-01-07T14:29:43;1.90;99.90
41904;DHT22;27586;51.124;4.182;2024-01-07T14:32:10;1.90;99.90
41904;DHT22;27586;51.124;4.182;2024-01-07T14:34:39;1.90;99.90
41904;DHT22;27586;51.124;4.182;2024-01-07T14:37:10;1.90;99.90
41904;DHT22;27586;51.124;4.182;2024-01-07T14:39:36;1.90;99.90
41904;DHT22;27586;51.124;4.182;2024-01-07T14:42:02;1.90;99.90
41904;DHT22;27586;51.124;4.182;2024-01-07T14:44:29;2.00;99.90
41904;DHT22;27586;51.124;4.182;2024-01-07T14:46:54;2.00;99.90
41904;DHT22;27586;51.124;4.182;2024-01-07T14:49:20;2.10;99.90
41904;DHT22;27586;51.124;4.182;2024-01-07T14:51:46;2.20;99.90
41904;DHT22;27586;51.124;4.182;2024-01-07T14:54:12;2.30;99.90
41904;DHT22;27586;51.124;4.182;2024-01-07T14:56:38;2.20;99.90
41904;DHT22;27586;51.124;4.182;2024-01-07T14:59:04;2.20;99.90
41904;DHT22;27586;51.124;4.182;2024-01-07T15:01:30;2.10;99.90
41904;DHT22;27586;51.124;4.182;2024-01-07T15:03:56;2.10;99.90
41904;DHT22;27586;51.124;4.182;2024-01-07T15:06:21;2.00;99.90
41904;DHT22;27586;51.124;4.182;2024-01-07T15:08:47;2.00;99.90
41904;DHT22;27586;51.124;4.182;2024-01-07T15:11:14;2.00;99.90
41904;DHT22;27586;51.124;4.182;2024-01-07T15:13:42;1.90;99.90
41904;DHT22;27586;51.124;4.182;2024-01-07T15:16:08;1.90;99.90
41904;DHT22;27586;51.124;4.182;2024-01-07T15:18:34;1.80;99.90
41904;DHT22;27586;51.124;4.182;2024-01-07T15:21:01;1.80;99.90
41904;DHT22;27586;51.124;4.182;2024-01-07T15:23:27;1.80;99.90
41904;DHT22;27586;51.124;4.182;2024-01-07T15:25:52;1.80;99.90
41904;DHT22;27586;51.124;4.182;2024-01-07T15:28:18;1.80;99.90
41904;DHT22;27586;51.124;4.182;2024-01-07T15:30:44;1.70;99.90
41904;DHT22;27586;51.124;4.182;2024-01-07T15:33:10;1.80;99.90
41904;DHT22;27586;51.124;4.182;2024-01-07T15:35:35;1.70;99.90
41904;DHT22;27586;51.124;4.182;2024-01-07T15:38:01;1.80;99.90
41904;DHT22;27586;51.124;4.182;2024-01-07T15:40:27;1.50;99.90
41904;DHT22;27586;51.124;4.182;2024-01-07T15:42:52;1.40;99.90
41904;DHT22;27586;51.124;4.182;2024-01-07T15:45:18;1.40;99.90
41904;DHT22;27586;51.124;4.182;2024-01-07T15:47:43;1.30;99.90
41904;DHT22;27586;51.124;4.182;2024-01-07T15:50:09;1.20;99.90